Time;durP1;ratioP1;P1;durP2;ratioP2;P2;SDS_P1;SDS_P2;PMS_P1;PMS_P2;Temp;Humidity;BMP_temperature;BMP_pressure;BME280_temperature;BME280_humidity;BME280_pressure;Samples;Min_cycle;Max_cycle;Signal;HPM_P1;HPM_P2
2021/05/25 00:01:17;;;;;;;0.28;0.22;;;;;;;;;;5033001;28;20039;-6
2021/05/25 00:03:43;;;;;;;0.93;0.90;;;;;;;;;;5033073;28;20033;-7
2021/05/25 00:06:08;;;;;;;0.45;0.45;;;;;;;;;;5033273;28;20018;-6
2021/05/25 00:08:34;;;;;;;0.52;0.40;;;;;;;;;;5033076;28;20484;-7
2021/05/25 00:10:59;;;;;;;1.55;0.43;;;;;;;;;;5031407;28;20094;-5
2021/05/25 00:13:25;;;;;;;0.65;0.22;;;;;;;;;;5033132;28;20407;-6
2021/05/25 00:15:53;;;;;;;0.25;0.25;;;;;;;;;;5032707;28;20060;-5
2021/05/25 00:18:19;;;;;;;0.40;0.28;;;;;;;;;;5032911;28;20057;-7
2021/05/25 00:20:44;;;;;;;0.73;0.30;;;;;;;;;;5032631;28;20017;-5
2021/05/25 00:23:10;;;;;;;0.45;0.30;;;;;;;;;;5032971;28;20032;-7
2021/05/25 00:25:35;;;;;;;0.25;0.25;;;;;;;;;;5032643;28;20431;-6
2021/05/25 00:28:01;;;;;;;0.80;0.40;;;;;;;;;;5032626;28;20025;-10
2021/05/25 00:30:26;;;;;;;0.20;0.20;;;;;;;;;;5032553;28;20104;-6
2021/05/25 00:32:51;;;;;;;0.40;0.30;;;;;;;;;;5032418;28;20056;-5
2021/05/25 00:35:17;;;;;;;0.22;0.22;;;;;;;;;;5032508;28;20072;-6
2021/05/25 00:37:42;;;;;;;0.10;0.10;;;;;;;;;;5032375;28;20511;-7
2021/05/25 00:40:09;;;;;;;1.15;0.25;;;;;;;;;;5032514;28;20029;-5
2021/05/25 00:42:35;;;;;;;0.60;0.40;;;;;;;;;;5032327;28;20033;-5
2021/05/25 00:45:02;;;;;;;0.43;0.40;;;;;;;;;;5032329;28;20024;-5
2021/05/25 00:47:35;;;;;;;1.13;0.40;;;;;;;;;;5031018;28;20384;-5
2021/05/25 00:50:11;;;;;;;0.43;0.30;;;;;;;;;;5032273;28;20036;-5
2021/05/25 00:52:40;;;;;;;0.50;0.40;;;;;;;;;;5032529;28;20101;-4
2021/05/25 00:55:06;;;;;;;0.13;0.13;;;;;;;;;;5032125;28;20171;-6
2021/05/25 00:57:32;;;;;;;3.03;0.38;;;;;;;;;;5032549;28;20025;-5
2021/05/25 00:59:57;;;;;;;2.05;0.75;;;;;;;;;;5032267;28;20388;-6
2021/05/25 01:02:22;;;;;;;0.95;0.30;;;;;;;;;;5030942;28;20088;-5
2021/05/25 01:04:48;;;;;;;0.28;0.28;;;;;;;;;;5032437;28;20025;-5
2021/05/25 01:07:13;;;;;;;0.75;0.30;;;;;;;;;;5032194;28;20029;-6
2021/05/25 01:09:39;;;;;;;0.20;0.20;;;;;;;;;;5032010;28;20017;-5
2021/05/25 01:12:05;;;;;;;0.22;0.22;;;;;;;;;;5032114;28;20025;-5
2021/05/25 01:14:37;;;;;;;0.85;0.50;;;;;;;;;;5032186;28;20112;-4
2021/05/25 01:17:03;;;;;;;0.95;0.30;;;;;;;;;;5032141;28;20025;-6
2021/05/25 01:19:28;;;;;;;0.55;0.20;;;;;;;;;;5031855;28;20121;-5
2021/05/25 01:21:53;;;;;;;0.65;0.40;;;;;;;;;;5032091;28;20053;-5
2021/05/25 01:24:19;;;;;;;2.72;0.30;;;;;;;;;;5031952;28;20104;-6
2021/05/25 01:26:44;;;;;;;0.25;0.25;;;;;;;;;;5031930;28;20044;-4
2021/05/25 01:29:09;;;;;;;0.20;0.20;;;;;;;;;;5031945;28;20480;-5
2021/05/25 01:31:35;;;;;;;0.20;0.20;;;;;;;;;;5031911;28;20032;-5
2021/05/25 01:34:00;;;;;;;0.30;0.30;;;;;;;;;;5032236;28;20040;-5
2021/05/25 01:36:26;;;;;;;0.35;0.35;;;;;;;;;;5030572;28;20095;-5
2021/05/25 01:38:51;;;;;;;0.65;0.45;;;;;;;;;;5031996;28;20031;-5
2021/05/25 01:41:16;;;;;;;1.20;0.40;;;;;;;;;;5032136;28;20116;-5
2021/05/25 01:43:42;;;;;;;2.75;0.40;;;;;;;;;;5031743;28;20423;-6
2021/05/25 01:46:07;;;;;;;0.35;0.28;;;;;;;;;;5031890;28;20029;-6
2021/05/25 01:48:33;;;;;;;1.45;0.20;;;;;;;;;;5031773;28;20586;-5
2021/05/25 01:50:58;;;;;;;1.90;0.30;;;;;;;;;;5031680;28;20037;-6
2021/05/25 01:53:28;;;;;;;1.30;0.30;;;;;;;;;;5032046;28;20147;-4
2021/05/25 01:55:55;;;;;;;3.83;0.47;;;;;;;;;;5031703;28;20123;-5
2021/05/25 01:58:32;;;;;;;1.27;0.30;;;;;;;;;;5034928;28;20028;-5
2021/05/25 02:00:59;;;;;;;0.43;0.20;;;;;;;;;;5035246;28;20050;-4
2021/05/25 02:03:25;;;;;;;0.50;0.20;;;;;;;;;;5035296;28;20021;-4
2021/05/25 02:05:51;;;;;;;4.38;0.20;;;;;;;;;;5035208;28;20484;-6
2021/05/25 02:08:17;;;;;;;1.25;0.20;;;;;;;;;;5035217;28;20029;-5
2021/05/25 02:10:44;;;;;;;0.28;0.28;;;;;;;;;;5034935;28;20025;-5
2021/05/25 02:13:11;;;;;;;0.80;0.32;;;;;;;;;;5035056;28;20018;-4
2021/05/25 02:15:37;;;;;;;0.43;0.30;;;;;;;;;;5034934;28;20030;-5
2021/05/25 02:18:04;;;;;;;0.50;0.32;;;;;;;;;;5035273;28;20017;-5
2021/05/25 02:20:29;;;;;;;0.40;0.10;;;;;;;;;;5034966;28;20102;-10
2021/05/25 02:22:55;;;;;;;0.50;0.30;;;;;;;;;;5034895;28;20021;-5
2021/05/25 02:25:20;;;;;;;0.10;0.10;;;;;;;;;;5035043;28;20499;-5
2021/05/25 02:27:45;;;;;;;1.98;0.30;;;;;;;;;;5034743;28;20025;-5
2021/05/25 02:30:11;;;;;;;0.40;0.20;;;;;;;;;;5035028;28;20105;-5
2021/05/25 02:32:37;;;;;;;1.08;0.22;;;;;;;;;;5034886;28;20021;-5
2021/05/25 02:35:05;;;;;;;1.65;0.30;;;;;;;;;;5034604;28;20030;-5
2021/05/25 02:37:30;;;;;;;0.55;0.20;;;;;;;;;;5034601;28;20113;-5
2021/05/25 02:39:55;;;;;;;6.40;0.32;;;;;;;;;;5034607;28;20124;-6
2021/05/25 02:42:21;;;;;;;0.52;0.20;;;;;;;;;;5034587;28;20014;-4
2021/05/25 02:44:46;;;;;;;3.08;0.57;;;;;;;;;;5034668;28;20040;-4
2021/05/25 02:47:12;;;;;;;0.85;0.50;;;;;;;;;;5034668;28;20457;-5
2021/05/25 02:49:37;;;;;;;0.77;0.50;;;;;;;;;;5034301;28;20033;-4
2021/05/25 02:52:02;;;;;;;0.32;0.32;;;;;;;;;;5034619;28;20144;-6
2021/05/25 02:54:28;;;;;;;0.40;0.38;;;;;;;;;;5034082;28;20524;-6
2021/05/25 02:56:53;;;;;;;0.68;0.45;;;;;;;;;;5034228;28;20110;-5
2021/05/25 02:59:19;;;;;;;1.17;0.57;;;;;;;;;;5034077;28;20056;-4
2021/05/25 03:01:44;;;;;;;0.40;0.40;;;;;;;;;;5034360;28;20076;-5
2021/05/25 03:04:09;;;;;;;0.50;0.38;;;;;;;;;;5034115;28;20103;-6
2021/05/25 03:06:35;;;;;;;0.35;0.35;;;;;;;;;;5032704;28;20045;-5
2021/05/25 03:09:00;;;;;;;0.50;0.30;;;;;;;;;;5032941;28;20053;-5
2021/05/25 03:11:27;;;;;;;0.30;0.30;;;;;;;;;;5032591;28;20059;-4
2021/05/25 03:13:53;;;;;;;0.65;0.50;;;;;;;;;;5033920;28;20113;-5
2021/05/25 03:16:18;;;;;;;0.30;0.30;;;;;;;;;;5033683;28;20495;-5
2021/05/25 03:18:43;;;;;;;0.68;0.30;;;;;;;;;;5032374;28;20192;-6
2021/05/25 03:21:09;;;;;;;0.30;0.30;;;;;;;;;;5033731;28;20032;-3
2021/05/25 03:23:34;;;;;;;0.25;0.25;;;;;;;;;;5033567;28;20030;-5
2021/05/25 03:26:01;;;;;;;0.40;0.40;;;;;;;;;;5034028;28;20022;-5
2021/05/25 03:28:26;;;;;;;2.00;0.20;;;;;;;;;;5033953;28;20155;-4
2021/05/25 03:30:52;;;;;;;5.15;0.30;;;;;;;;;;5033368;28;20029;-4
2021/05/25 03:33:17;;;;;;;0.40;0.30;;;;;;;;;;5032292;28;20033;-5
2021/05/25 03:35:42;;;;;;;1.00;0.30;;;;;;;;;;5033327;28;20140;-5
2021/05/25 03:38:08;;;;;;;0.28;0.28;;;;;;;;;;5033715;28;20032;-5
2021/05/25 03:40:33;;;;;;;0.30;0.22;;;;;;;;;;5031897;28;20029;-5
2021/05/25 03:42:59;;;;;;;0.75;0.30;;;;;;;;;;5033326;28;20477;-5
2021/05/25 03:45:24;;;;;;;0.30;0.30;;;;;;;;;;5033649;28;20017;-6
2021/05/25 03:47:51;;;;;;;0.40;0.30;;;;;;;;;;5033209;28;20464;-5
2021/05/25 03:50:16;;;;;;;0.20;0.20;;;;;;;;;;5033101;28;20072;-5
2021/05/25 03:52:49;;;;;;;0.20;0.20;;;;;;;;;;5033138;28;20033;-6
2021/05/25 04:00:33;;;;;;;0.40;0.35;;;;;;;;;;5033146;28;20123;-5
2021/05/25 04:02:59;;;;;;;0.20;0.20;;;;;;;;;;5033086;28;20022;-5
2021/05/25 04:05:24;;;;;;;0.47;0.30;;;;;;;;;;5032956;28;20388;-6
2021/05/25 04:07:49;;;;;;;0.47;0.30;;;;;;;;;;5032902;28;20064;-5
2021/05/25 04:10:15;;;;;;;1.30;0.50;;;;;;;;;;5032908;28;20083;-5
2021/05/25 04:12:41;;;;;;;0.45;0.40;;;;;;;;;;5032728;28;20087;-4
2021/05/25 04:15:06;;;;;;;1.95;0.30;;;;;;;;;;5033118;28;20087;-5
2021/05/25 04:17:32;;;;;;;0.30;0.30;;;;;;;;;;5032999;28;20423;-6
2021/05/25 04:19:57;;;;;;;0.22;0.20;;;;;;;;;;5032349;28;20446;-5
2021/05/25 04:22:22;;;;;;;0.30;0.20;;;;;;;;;;5033060;28;20067;-5
2021/05/25 04:24:48;;;;;;;0.38;0.38;;;;;;;;;;5032676;28;20547;-5
2021/05/25 04:27:13;;;;;;;0.75;0.30;;;;;;;;;;5064698;28;20013;-5
2021/05/25 04:29:39;;;;;;;0.40;0.32;;;;;;;;;;5032527;28;20392;-5
2021/05/25 04:32:06;;;;;;;0.20;0.20;;;;;;;;;;5032573;28;20393;-6
2021/05/25 04:34:32;;;;;;;0.30;0.30;;;;;;;;;;5032410;28;20029;-6
2021/05/25 04:36:57;;;;;;;0.22;0.22;;;;;;;;;;5032446;28;20027;-6
2021/05/25 04:39:22;;;;;;;0.38;0.25;;;;;;;;;;5032669;28;20035;-6
2021/05/25 04:41:48;;;;;;;0.50;0.30;;;;;;;;;;5032386;28;20461;-5
2021/05/25 04:44:13;;;;;;;0.35;0.35;;;;;;;;;;5032433;28;20100;-6
2021/05/25 04:46:38;;;;;;;0.38;0.38;;;;;;;;;;5032281;28;20017;-5
2021/05/25 04:49:04;;;;;;;0.73;0.38;;;;;;;;;;5032579;28;20029;-5
2021/05/25 04:51:29;;;;;;;0.50;0.40;;;;;;;;;;5032284;28;20088;-5
2021/05/25 04:53:55;;;;;;;0.25;0.25;;;;;;;;;;5032564;28;20113;-6
2021/05/25 04:56:20;;;;;;;0.98;0.25;;;;;;;;;;5032119;28;20049;-6
2021/05/25 04:58:46;;;;;;;1.90;0.60;;;;;;;;;;5032483;28;20099;-8
2021/05/25 05:01:11;;;;;;;0.43;0.30;;;;;;;;;;5032453;28;20416;-5
2021/05/25 05:03:37;;;;;;;0.50;0.50;;;;;;;;;;5032385;28;20483;-6
2021/05/25 05:06:02;;;;;;;0.50;0.30;;;;;;;;;;5032220;28;20120;-5
2021/05/25 05:08:28;;;;;;;0.38;0.38;;;;;;;;;;5032464;28;20041;-4
2021/05/25 05:10:53;;;;;;;2.83;0.38;;;;;;;;;;5032300;28;20026;-5
2021/05/25 05:13:18;;;;;;;0.43;0.38;;;;;;;;;;5032169;28;20022;-5
2021/05/25 05:15:44;;;;;;;0.40;0.40;;;;;;;;;;5030704;28;20539;-5
2021/05/25 05:18:09;;;;;;;0.20;0.20;;;;;;;;;;5032403;28;20465;-5
2021/05/25 05:20:35;;;;;;;1.27;0.50;;;;;;;;;;5031825;28;20388;-6
2021/05/25 05:23:00;;;;;;;0.85;0.45;;;;;;;;;;5032054;28;20036;-6
2021/05/25 05:25:26;;;;;;;0.40;0.32;;;;;;;;;;5032000;28;20018;-5
2021/05/25 05:27:52;;;;;;;1.85;0.50;;;;;;;;;;5032172;28;20130;-5
2021/05/25 05:30:17;;;;;;;0.57;0.30;;;;;;;;;;5031966;28;20021;-4
2021/05/25 05:32:43;;;;;;;0.52;0.52;;;;;;;;;;5034390;28;20033;-5
2021/05/25 05:35:09;;;;;;;0.50;0.40;;;;;;;;;;5035831;28;20018;-5
2021/05/25 05:37:34;;;;;;;0.68;0.68;;;;;;;;;;5034276;28;20560;-4
2021/05/25 05:39:59;;;;;;;1.42;0.50;;;;;;;;;;5035487;28;20120;-6
2021/05/25 05:42:25;;;;;;;1.20;0.70;;;;;;;;;;5035001;28;20112;-5
2021/05/25 05:44:51;;;;;;;0.40;0.40;;;;;;;;;;5034266;28;20033;-8
2021/05/25 05:47:17;;;;;;;4.95;0.55;;;;;;;;;;5035528;28;20072;-5
2021/05/25 05:49:42;;;;;;;0.57;0.40;;;;;;;;;;5034943;28;20030;-6
2021/05/25 05:52:08;;;;;;;0.68;0.40;;;;;;;;;;5035442;28;20062;-6
2021/05/25 05:54:34;;;;;;;0.50;0.40;;;;;;;;;;5035315;28;20412;-6
2021/05/25 05:57:00;;;;;;;3.58;0.60;;;;;;;;;;5034840;28;20105;-7
2021/05/25 05:59:26;;;;;;;0.57;0.40;;;;;;;;;;5035019;28;20096;-5
2021/05/25 06:01:52;;;;;;;1.25;0.50;;;;;;;;;;5035459;28;20053;-7
2021/05/25 06:04:17;;;;;;;1.50;0.30;;;;;;;;;;5035270;28;20021;-5
2021/05/25 06:06:42;;;;;;;0.30;0.30;;;;;;;;;;5034159;28;20021;-5
2021/05/25 06:09:08;;;;;;;0.40;0.40;;;;;;;;;;5035160;28;20461;-6
2021/05/25 06:11:34;;;;;;;0.60;0.47;;;;;;;;;;5035280;28;20036;-5
2021/05/25 06:13:59;;;;;;;0.28;0.25;;;;;;;;;;5035095;28;20044;-5
2021/05/25 06:16:25;;;;;;;3.30;0.30;;;;;;;;;;5035009;28;20037;-6
2021/05/25 06:18:50;;;;;;;0.60;0.60;;;;;;;;;;5035127;28;20051;-6
2021/05/25 06:21:15;;;;;;;1.50;0.30;;;;;;;;;;5034886;28;20056;-6
2021/05/25 06:23:41;;;;;;;0.70;0.40;;;;;;;;;;5034875;28;20053;-5
2021/05/25 06:26:07;;;;;;;0.52;0.22;;;;;;;;;;5034895;28;20432;-4
2021/05/25 06:28:32;;;;;;;0.68;0.30;;;;;;;;;;5033490;28;20014;-5
2021/05/25 06:30:58;;;;;;;0.45;0.40;;;;;;;;;;5034678;28;20546;-6
2021/05/25 06:33:23;;;;;;;0.45;0.40;;;;;;;;;;5035039;28;20021;-4
2021/05/25 06:35:50;;;;;;;1.20;0.70;;;;;;;;;;5034588;28;20049;-5
2021/05/25 06:38:15;;;;;;;0.95;0.52;;;;;;;;;;5034650;28;20014;-5
2021/05/25 06:40:41;;;;;;;1.15;0.38;;;;;;;;;;5034399;28;20061;-5
2021/05/25 06:43:06;;;;;;;1.75;0.70;;;;;;;;;;5034573;28;20104;-6
2021/05/25 06:45:31;;;;;;;0.57;0.40;;;;;;;;;;5034521;28;20090;-5
2021/05/25 06:47:57;;;;;;;2.47;0.80;;;;;;;;;;5034632;28;20426;-5
2021/05/25 06:50:22;;;;;;;0.88;0.55;;;;;;;;;;5033024;28;20454;-6
2021/05/25 06:52:47;;;;;;;1.73;0.60;;;;;;;;;;5034575;28;20069;-5
2021/05/25 06:55:13;;;;;;;0.52;0.52;;;;;;;;;;5034139;28;20049;-6
2021/05/25 06:57:39;;;;;;;0.80;0.40;;;;;;;;;;5034553;28;20056;-5
2021/05/25 07:00:05;;;;;;;1.17;0.40;;;;;;;;;;5034087;28;20488;-6
2021/05/25 07:02:31;;;;;;;3.95;0.40;;;;;;;;;;5034059;28;20024;-5
2021/05/25 07:04:56;;;;;;;2.17;0.60;;;;;;;;;;5034042;28;20025;-5
2021/05/25 07:07:22;;;;;;;0.90;0.52;;;;;;;;;;5034060;28;20021;-6
2021/05/25 07:09:47;;;;;;;1.13;0.45;;;;;;;;;;5034193;28;20029;-6
2021/05/25 07:12:13;;;;;;;1.30;0.60;;;;;;;;;;5032669;28;20018;-5
2021/05/25 07:14:39;;;;;;;0.63;0.43;;;;;;;;;;5034058;28;20040;-5
2021/05/25 07:17:04;;;;;;;0.60;0.50;;;;;;;;;;5034140;28;20087;-6
2021/05/25 07:19:30;;;;;;;2.85;0.60;;;;;;;;;;5033992;28;20041;-5
2021/05/25 07:21:55;;;;;;;1.92;0.70;;;;;;;;;;5032471;28;20037;-5
2021/05/25 07:24:21;;;;;;;0.95;0.55;;;;;;;;;;5034025;28;20109;-6
2021/05/25 07:26:46;;;;;;;4.10;0.80;;;;;;;;;;5033537;28;20526;-5
2021/05/25 07:29:11;;;;;;;1.42;0.90;;;;;;;;;;5033552;28;20033;-7
2021/05/25 07:31:37;;;;;;;2.42;0.75;;;;;;;;;;5033325;28;20021;-6
2021/05/25 07:34:03;;;;;;;1.42;0.60;;;;;;;;;;5033568;28;20053;-6
2021/05/25 07:36:28;;;;;;;1.92;0.80;;;;;;;;;;5032309;28;20507;-6
2021/05/25 07:38:53;;;;;;;2.10;0.50;;;;;;;;;;5033234;28;20128;-6
2021/05/25 07:41:19;;;;;;;2.60;1.30;;;;;;;;;;5033814;28;20367;-6
2021/05/25 07:43:44;;;;;;;0.60;0.50;;;;;;;;;;5033599;28;20044;-4
2021/05/25 07:46:10;;;;;;;1.30;0.50;;;;;;;;;;5033573;28;20498;-6
2021/05/25 07:48:35;;;;;;;4.00;0.63;;;;;;;;;;5033251;28;20091;-5
2021/05/25 07:51:01;;;;;;;0.68;0.55;;;;;;;;;;5033172;28;20040;-6
2021/05/25 07:53:26;;;;;;;0.50;0.50;;;;;;;;;;5033446;28;20033;-5
2021/05/25 07:55:52;;;;;;;0.70;0.50;;;;;;;;;;5032382;28;20041;-6
2021/05/25 07:58:17;;;;;;;0.63;0.50;;;;;;;;;;5033171;28;20460;-6
2021/05/25 08:00:42;;;;;;;0.40;0.30;;;;;;;;;;5032850;28;20041;-5
2021/05/25 08:03:08;;;;;;;0.63;0.40;;;;;;;;;;5033291;28;20060;-6
2021/05/25 08:05:33;;;;;;;0.88;0.60;;;;;;;;;;5033060;28;20357;-5
2021/05/25 08:08:02;;;;;;;1.83;0.60;;;;;;;;;;5033200;28;20353;-7
2021/05/25 08:10:28;;;;;;;0.98;0.88;;;;;;;;;;5032928;28;20036;-5
2021/05/25 08:12:53;;;;;;;0.95;0.65;;;;;;;;;;5032842;28;20476;-6
2021/05/25 08:15:19;;;;;;;0.65;0.65;;;;;;;;;;5064984;28;20596;-6
2021/05/25 08:18:03;;;;;;;4.45;0.70;;;;;;;;;;5032997;28;20029;-6
2021/05/25 08:20:28;;;;;;;0.63;0.60;;;;;;;;;;5032670;28;20530;-6
2021/05/25 08:22:55;;;;;;;2.78;0.80;;;;;;;;;;5032585;28;20022;-6
2021/05/25 08:25:26;;;;;;;1.77;1.30;;;;;;;;;;5032595;28;20033;-7
2021/05/25 08:27:52;;;;;;;4.85;1.60;;;;;;;;;;5032677;28;20026;-5
2021/05/25 08:30:19;;;;;;;2.13;1.63;;;;;;;;;;5032909;28;20384;-6
2021/05/25 08:32:44;;;;;;;2.10;1.20;;;;;;;;;;5032779;28;20018;-5
2021/05/25 08:35:10;;;;;;;3.35;1.75;;;;;;;;;;5032841;28;20550;-5
2021/05/25 08:37:36;;;;;;;3.40;1.38;;;;;;;;;;5031133;28;20666;-6
2021/05/25 08:40:03;;;;;;;5.00;2.20;;;;;;;;;;5032674;28;20060;-5
2021/05/25 08:42:28;;;;;;;5.35;1.80;;;;;;;;;;5032267;28;20009;-6
2021/05/25 08:44:54;;;;;;;2.13;1.10;;;;;;;;;;5031083;28;20112;-4
2021/05/25 08:47:19;;;;;;;2.30;0.88;;;;;;;;;;5032398;28;20010;-6
2021/05/25 08:49:45;;;;;;;2.28;1.55;;;;;;;;;;5032141;28;20029;-6
2021/05/25 08:52:10;;;;;;;2.22;1.20;;;;;;;;;;5032609;28;20021;-5
2021/05/25 08:54:39;;;;;;;1.73;1.00;;;;;;;;;;5032175;28;20057;-6
2021/05/25 08:57:04;;;;;;;6.63;1.60;;;;;;;;;;5032665;28;20453;-5
2021/05/25 08:59:30;;;;;;;1.88;0.98;;;;;;;;;;5032194;28;20121;-7
2021/05/25 09:01:55;;;;;;;2.08;1.58;;;;;;;;;;5030944;28;20469;-6
2021/05/25 09:04:20;;;;;;;5.10;1.70;;;;;;;;;;5032417;28;20025;-6
2021/05/25 09:06:49;;;;;;;3.08;1.05;;;;;;;;;;5033396;28;20029;-5
2021/05/25 09:09:15;;;;;;;4.43;1.85;;;;;;;;;;5036532;28;20059;-7
2021/05/25 09:12:01;;;;;;;1.67;1.40;;;;;;;;;;5034840;28;20500;-4
2021/05/25 09:14:27;;;;;;;2.47;1.77;;;;;;;;;;5036076;28;20042;-4
2021/05/25 09:17:11;;;;;;;3.53;1.85;;;;;;;;;;5036153;28;20108;-6
2021/05/25 09:19:46;;;;;;;3.47;2.33;;;;;;;;;;5035739;28;20471;-6
2021/05/25 09:22:30;;;;;;;2.95;1.85;;;;;;;;;;5036416;28;20033;-4
2021/05/25 09:24:56;;;;;;;4.50;1.95;;;;;;;;;;5036145;28;20478;-5
2021/05/25 09:27:29;;;;;;;2.55;1.90;;;;;;;;;;5036217;28;20079;-5
2021/05/25 09:30:08;;;;;;;3.72;2.50;;;;;;;;;;5035836;28;20036;-6
2021/05/25 09:32:36;;;;;;;2.70;2.05;;;;;;;;;;5035886;28;20115;-5
2021/05/25 09:35:04;;;;;;;2.70;2.22;;;;;;;;;;5034496;28;20403;-5
2021/05/25 09:37:30;;;;;;;3.63;2.15;;;;;;;;;;5035842;28;20022;-4
2021/05/25 09:39:56;;;;;;;4.10;2.13;;;;;;;;;;5035702;28;20053;-6
2021/05/25 09:42:22;;;;;;;4.07;2.53;;;;;;;;;;5035767;28;20025;-5
2021/05/25 09:45:01;;;;;;;2.38;2.03;;;;;;;;;;5035825;28;20080;-5
2021/05/25 09:47:48;;;;;;;4.47;3.40;;;;;;;;;;5035625;28;20083;-6
2021/05/25 09:50:14;;;;;;;3.33;2.42;;;;;;;;;;5035784;28;20507;-5
2021/05/25 09:52:58;;;;;;;2.67;1.90;;;;;;;;;;5035461;28;20017;-6
2021/05/25 09:55:24;;;;;;;2.35;1.60;;;;;;;;;;5034046;28;20053;-6
2021/05/25 09:57:52;;;;;;;3.70;2.20;;;;;;;;;;5035347;28;20037;-5
2021/05/25 10:00:29;;;;;;;2.47;1.80;;;;;;;;;;5035185;28;20049;-6
2021/05/25 10:03:03;;;;;;;3.83;2.60;;;;;;;;;;5035253;28;20029;-6
2021/05/25 10:05:29;;;;;;;3.00;2.10;;;;;;;;;;5035262;28;20033;-5
2021/05/25 10:07:54;;;;;;;4.63;2.00;;;;;;;;;;5035148;28;20022;-5
2021/05/25 10:10:20;;;;;;;3.38;2.38;;;;;;;;;;5035401;28;20033;-5
2021/05/25 10:12:46;;;;;;;4.70;2.55;;;;;;;;;;5035129;28;20520;-4
2021/05/25 10:15:13;;;;;;;4.85;2.55;;;;;;;;;;5034973;28;20044;-5
2021/05/25 10:20:07;;;;;;;3.08;2.33;;;;;;;;;;5035195;28;20044;-5
2021/05/25 10:22:34;;;;;;;4.22;2.75;;;;;;;;;;5034915;28;20060;-4
2021/05/25 10:24:59;;;;;;;3.97;2.30;;;;;;;;;;5034817;28;20120;-5
2021/05/25 10:27:28;;;;;;;5.38;2.65;;;;;;;;;;5033586;28;20100;-5
2021/05/25 10:29:54;;;;;;;4.47;1.85;;;;;;;;;;5034902;28;20044;-6
2021/05/25 10:32:23;;;;;;;3.03;1.75;;;;;;;;;;5034819;28;20465;-5
2021/05/25 10:34:50;;;;;;;1.50;1.00;;;;;;;;;;5033329;28;20030;-6
2021/05/25 10:37:15;;;;;;;1.80;1.58;;;;;;;;;;5034717;28;20013;-6
2021/05/25 10:39:44;;;;;;;1.77;1.45;;;;;;;;;;5034361;28;20037;-6
2021/05/25 10:42:25;;;;;;;3.85;1.95;;;;;;;;;;5034879;28;20029;-6
2021/05/25 10:44:56;;;;;;;2.80;1.77;;;;;;;;;;5033216;28;20029;-5
2021/05/25 10:47:27;;;;;;;3.42;1.48;;;;;;;;;;5034782;28;20388;-7
2021/05/25 10:50:25;;;;;;;2.80;1.65;;;;;;;;;;5034637;28;20022;-6
2021/05/25 10:52:53;;;;;;;3.85;1.98;;;;;;;;;;5034248;28;20041;-5
2021/05/25 10:55:30;;;;;;;2.13;1.48;;;;;;;;;;5034159;28;20049;-5
2021/05/25 10:57:56;;;;;;;3.15;1.73;;;;;;;;;;5034282;28;20037;-4
2021/05/25 11:00:48;;;;;;;4.00;1.80;;;;;;;;;;5034081;28;20088;-5
2021/05/25 11:03:18;;;;;;;2.15;1.35;;;;;;;;;;5034012;28;20443;-5
2021/05/25 11:05:55;;;;;;;1.95;1.38;;;;;;;;;;5034117;28;20029;-4
2021/05/25 11:08:24;;;;;;;1.38;1.00;;;;;;;;;;5034390;28;20029;-5
2021/05/25 11:10:53;;;;;;;0.98;0.70;;;;;;;;;;5034232;28;20441;-6
2021/05/25 11:13:20;;;;;;;1.25;0.77;;;;;;;;;;5034249;28;20039;-4
2021/05/25 11:16:06;;;;;;;1.77;0.90;;;;;;;;;;5033868;28;20464;-5
2021/05/25 11:18:36;;;;;;;1.10;0.82;;;;;;;;;;5034139;28;20120;-5
2021/05/25 11:21:29;;;;;;;2.00;1.05;;;;;;;;;;5033932;28;20116;-4
2021/05/25 11:23:51;;;;;;;0.75;0.60;;;;;;;;;;5031796;28;20021;-5
2021/05/25 11:26:45;;;;;;;1.05;0.90;;;;;;;;;;5033807;28;20029;-6
2021/05/25 11:29:17;;;;;;;0.98;0.73;;;;;;;;;;5031917;28;20029;-6
2021/05/25 11:31:43;;;;;;;0.95;0.75;;;;;;;;;;5032296;28;20088;-4
2021/05/25 11:34:08;;;;;;;1.30;1.00;;;;;;;;;;5033848;28;20029;-5
2021/05/25 11:36:37;;;;;;;1.30;0.88;;;;;;;;;;5033898;28;20036;-5
2021/05/25 11:39:04;;;;;;;1.58;1.05;;;;;;;;;;5033406;28;20021;-4
2021/05/25 11:41:29;;;;;;;0.03;0.03;;;;;;;;;;5033773;28;20370;-5
2021/05/25 11:44:06;;;;;;;2.58;1.17;;;;;;;;;;5033413;28;20063;-5
2021/05/25 11:46:41;;;;;;;2.67;1.42;;;;;;;;;;5033379;28;20029;-5
2021/05/25 11:49:07;;;;;;;1.85;1.13;;;;;;;;;;5033581;28;20586;-6
2021/05/25 11:51:32;;;;;;;0.65;0.65;;;;;;;;;;5033285;28;20060;-5
2021/05/25 11:54:10;;;;;;;0.40;0.40;;;;;;;;;;5033489;28;20029;-6
2021/05/25 11:56:36;;;;;;;1.80;1.08;;;;;;;;;;5033183;28;20131;-5
2021/05/25 11:59:02;;;;;;;1.40;0.98;;;;;;;;;;5033058;28;20029;-6
2021/05/25 12:01:44;;;;;;;2.67;0.95;;;;;;;;;;5033069;28;20026;-6
2021/05/25 12:04:10;;;;;;;1.70;0.95;;;;;;;;;;5033008;28;20044;-5
2021/05/25 12:06:44;;;;;;;1.02;0.82;;;;;;;;;;5033074;28;20017;-6
2021/05/25 12:09:12;;;;;;;0.60;0.57;;;;;;;;;;5032875;28;20396;-6
2021/05/25 12:11:39;;;;;;;0.80;0.60;;;;;;;;;;5032843;28;20025;-5
2021/05/25 12:14:05;;;;;;;2.13;1.33;;;;;;;;;;5033166;28;20037;-6
2021/05/25 12:16:31;;;;;;;0.82;0.73;;;;;;;;;;5033010;28;20043;-7
2021/05/25 12:18:56;;;;;;;1.63;0.80;;;;;;;;;;5032696;28;20581;-6
2021/05/25 12:21:22;;;;;;;2.97;1.00;;;;;;;;;;5033101;28;20053;-5
2021/05/25 12:23:47;;;;;;;0.80;0.80;;;;;;;;;;5031289;28;20460;-5
2021/05/25 12:26:13;;;;;;;0.50;0.50;;;;;;;;;;5033049;28;20056;-5
2021/05/25 12:28:39;;;;;;;0.98;0.28;;;;;;;;;;5032555;28;20490;-7
2021/05/25 12:31:07;;;;;;;0.77;0.70;;;;;;;;;;5032604;28;20632;-6
2021/05/25 12:33:34;;;;;;;1.42;1.05;;;;;;;;;;5032682;28;20049;-6
2021/05/25 12:36:19;;;;;;;8.40;1.55;;;;;;;;;;5032459;28;20057;-5
2021/05/25 12:39:02;;;;;;;0.00;0.00;;;;;;;;;;5032582;28;20029;-5
2021/05/25 12:41:49;;;;;;;0.95;0.95;;;;;;;;;;5032537;28;20033;-5
2021/05/25 12:44:16;;;;;;;1.27;1.08;;;;;;;;;;5032722;28;20030;-7
2021/05/25 12:46:48;;;;;;;1.15;1.05;;;;;;;;;;5031015;28;20017;-4
2021/05/25 12:49:30;;;;;;;0.90;0.82;;;;;;;;;;5032692;28;20033;-7
2021/05/25 12:52:14;;;;;;;3.25;1.33;;;;;;;;;;5032436;28;20036;-5
2021/05/25 12:54:49;;;;;;;1.20;1.10;;;;;;;;;;5032160;28;20050;-6
2021/05/25 12:57:14;;;;;;;0.88;0.70;;;;;;;;;;5032696;28;20384;-6
2021/05/25 12:59:40;;;;;;;1.83;0.70;;;;;;;;;;5032383;28;20045;-6
2021/05/25 13:02:05;;;;;;;0.88;0.82;;;;;;;;;;5032538;28;20109;-6
2021/05/25 13:04:30;;;;;;;2.20;0.30;;;;;;;;;;5032150;28;20431;-5
2021/05/25 13:07:03;;;;;;;4.15;1.40;;;;;;;;;;5032120;28;20040;-6
2021/05/25 13:09:44;;;;;;;0.43;0.43;;;;;;;;;;5032497;28;20388;-5
2021/05/25 13:12:14;;;;;;;1.02;0.82;;;;;;;;;;5032443;28;20041;-6
2021/05/25 13:14:39;;;;;;;0.82;0.68;;;;;;;;;;5031121;28;20112;-6
2021/05/25 13:17:15;;;;;;;0.90;0.60;;;;;;;;;;5032469;28;20564;-7
2021/05/25 13:19:56;;;;;;;0.60;0.60;;;;;;;;;;5032132;28;20395;-5
2021/05/25 13:22:21;;;;;;;1.35;1.25;;;;;;;;;;5032116;28;20026;-6
2021/05/25 13:24:53;;;;;;;1.00;0.63;;;;;;;;;;5031859;28;20036;-5
2021/05/25 13:27:37;;;;;;;1.10;0.95;;;;;;;;;;5032375;28;20032;-6
2021/05/25 13:30:08;;;;;;;1.70;0.82;;;;;;;;;;5032323;28;20484;-6
2021/05/25 13:32:34;;;;;;;1.23;0.95;;;;;;;;;;5031954;28;20065;-6
2021/05/25 13:35:00;;;;;;;0.77;0.50;;;;;;;;;;5031991;28;20067;-6
2021/05/25 13:37:25;;;;;;;2.90;0.70;;;;;;;;;;5031099;28;20029;-5
2021/05/25 13:39:54;;;;;;;0.20;0.20;;;;;;;;;;5031660;28;20460;-5
2021/05/25 13:42:20;;;;;;;2.05;0.98;;;;;;;;;;5032068;28;20440;-6
2021/05/25 13:44:46;;;;;;;0.80;0.70;;;;;;;;;;5032159;28;20045;-5
2021/05/25 13:47:11;;;;;;;4.95;0.82;;;;;;;;;;5032085;28;20457;-6
2021/05/25 13:49:37;;;;;;;1.15;1.00;;;;;;;;;;5031887;28;20108;-6
2021/05/25 13:52:02;;;;;;;1.00;0.90;;;;;;;;;;5031981;28;20436;-5
2021/05/25 13:54:27;;;;;;;2.13;1.48;;;;;;;;;;5035185;28;20456;-6
2021/05/25 13:56:56;;;;;;;2.20;1.40;;;;;;;;;;5035434;28;20029;-5
2021/05/25 13:59:31;;;;;;;1.85;1.15;;;;;;;;;;5035254;28;20037;-6
2021/05/25 14:01:57;;;;;;;2.45;1.40;;;;;;;;;;5035586;28;20036;-5
2021/05/25 14:04:22;;;;;;;1.00;0.88;;;;;;;;;;5035562;28;20026;-6
2021/05/25 14:06:48;;;;;;;2.47;1.10;;;;;;;;;;5035501;28;20025;-6
2021/05/25 14:09:13;;;;;;;1.77;0.82;;;;;;;;;;5035462;28;20405;-5
2021/05/25 14:11:39;;;;;;;4.60;1.60;;;;;;;;;;5035472;28;20029;-5
2021/05/25 14:14:05;;;;;;;1.85;1.40;;;;;;;;;;5067093;28;20022;-5
2021/05/25 14:16:30;;;;;;;2.75;1.20;;;;;;;;;;5035310;28;20071;-6
2021/05/25 14:18:56;;;;;;;2.88;2.05;;;;;;;;;;5034949;28;20471;-6
2021/05/25 14:21:22;;;;;;;1.98;1.10;;;;;;;;;;5066818;28;20037;-6
2021/05/25 14:23:48;;;;;;;2.45;1.30;;;;;;;;;;5034861;28;20365;-4
2021/05/25 14:26:14;;;;;;;1.77;1.15;;;;;;;;;;5033733;28;20393;-6
2021/05/25 14:28:40;;;;;;;1.30;1.15;;;;;;;;;;5034838;28;20425;-5
2021/05/25 14:31:05;;;;;;;1.13;1.02;;;;;;;;;;5035286;28;20112;-6
2021/05/25 14:33:30;;;;;;;0.70;0.70;;;;;;;;;;5035073;28;20018;-6
2021/05/25 14:35:56;;;;;;;3.42;1.90;;;;;;;;;;5034584;28;20121;-5
2021/05/25 14:38:23;;;;;;;3.03;1.65;;;;;;;;;;5034684;28;20037;-6
2021/05/25 14:40:48;;;;;;;2.35;1.23;;;;;;;;;;5034402;28;20038;-5
2021/05/25 14:43:14;;;;;;;2.70;1.65;;;;;;;;;;5034815;28;20075;-7
2021/05/25 14:45:39;;;;;;;2.58;1.30;;;;;;;;;;5034515;28;20496;-6
2021/05/25 14:48:05;;;;;;;4.78;1.77;;;;;;;;;;5034476;28;20022;-5
2021/05/25 14:50:31;;;;;;;3.33;1.45;;;;;;;;;;5033683;28;20021;-7
2021/05/25 14:53:02;;;;;;;4.43;1.60;;;;;;;;;;5034255;28;20022;-5
2021/05/25 14:55:29;;;;;;;3.25;1.60;;;;;;;;;;5034307;28;20520;-5
2021/05/25 14:57:55;;;;;;;1.17;1.00;;;;;;;;;;5034085;28;20029;-5
2021/05/25 15:00:23;;;;;;;1.40;1.30;;;;;;;;;;5033767;28;20041;-7
2021/05/25 15:05:47;;;;;;;0.10;0.10;;;;;;;;;;5034115;28;20032;-7
2021/05/25 15:08:15;;;;;;;2.92;1.05;;;;;;;;;;5033984;28;20072;-6